Race Result

Veterans Day 5K

311 Main St, Destin, FL 32541
3.1 miles
Place Name Age Sex Age Group Event Time Pace
1 Anthony Brunson 33 M Overall Male R 00:17:34 05:40:00
2 Matt Blunden 37 M 1M35-39 R 00:18:33 05:59:00
3 Katja Blunden Eravisto 38 F Overall Female R 00:18:33 05:59:00
4 Bob Walker 46 M Male Masters R 00:19:31 06:17:00
5 Kaleb Hollins 12 M 1M10-14 R 00:19:39 06:20:00
6 Yancy Ream 46 M 1M45-49 R 00:19:41 06:20:00
7 Bobby Flynn 37 M 2M35-39 R 00:19:52 06:24:00
8 Frank McKenzie 53 M Male G/M R 00:19:55 06:25:00
9 Scott McNey 55 M 1M55-59 R 00:20:31 06:37:00
10 Aaron Haugen 34 M 1M30-34 R 00:20:40 06:40:00
11 Marc Stanley 45 M 2M45-49 R 00:20:55 06:44:00
12 Rick Leonardi 55 M 2M55-59 R 00:21:27 06:55:00
13 Karl Deninger 54 M 1M50-54 R 00:21:35 06:57:00
14 Eric May 38 M 3M35-39 R 00:22:02 07:06:00
15 Jacob Sheldon 12 M 2M10-14 R 00:22:22 07:12:00
16 Sara Freeland 34 F 1F30-34 R 00:22:27 07:14:00
17 Josh Castle 39 M R 00:22:29 07:15:00
18 Scott Cole 45 M 3M45-49 R 00:23:00 07:25:00
19 Mike Superman Million 62 M Male Sr G/M R 00:23:05 07:26:00
20 Skye Long 13 F 1F10-14 R 00:23:10 07:28:00
21 Chloe Fernander 13 F 2F10-14 R 00:23:33 07:35:00
22 Brian TBB Dwyer 40 M 1M40-44 R 00:23:35 07:36:00
23 Mark Flynn 69 M 1M65-69 R 00:23:39 07:37:00
24 Randy Cumbie 53 M 2M50-54 R 00:23:41 07:38:00
25 David Rich 48 M R 00:23:49 07:40:00
26 Tilda Brewer 12 F 3F10-14 R 00:23:51 07:41:00
27 Edie Ezell 60 F Female Masters R 00:23:58 07:43:00
28 Suzette McKenzie 49 F 1F45-49 R 00:24:12 07:48:00
29 Todd Sivia 37 M R 00:24:31 07:54:00
30 Meghan Yagle 13 F R 00:24:43 07:58:00
31 Spencer McKenzie 13 M 3M10-14 R 00:24:43 07:58:00
32 Susan McKenzie 52 F Female G/M R 00:24:48 08:00:00
33 Diana Cole 42 F 1F40-44 R 00:24:54 08:01:00
34 Ken Wolfle 39 M R 00:24:54 08:01:00
35 Amy Brewer 36 F 1F35-39 R 00:24:58 08:03:00
36 Nick Kern 69 M 2M65-69 R 00:25:00 08:03:00
37 Jenifer Tomosello 37 F 2F35-39 R 00:25:02 08:04:00
38 McKenzi Toth 11 F R 00:25:07 08:06:00
39 Chatham Morgan 30 M 2M30-34 R 00:25:08 08:06:00
40 Joel Johnson 38 M R 00:25:27 08:12:00
41 Sharon Wolfle 38 F 3F35-39 R 00:25:42 08:17:00
42 Brad Engleman 46 M R 00:25:54 08:21:00
43 Eli Scharf 8 M 1M0-9 R 00:25:59 08:22:00
44 Tiana Rodriguez 27 F 1F25-29 R 00:26:10 08:26:00
45 Jeanie McClain 58 F 1F55-59 R 00:26:10 08:26:00
46 Ted Duncan 53 M 3M50-54 R 00:26:16 08:28:00
47 David Gattie 28 M 1M25-29 R 00:26:16 08:28:00
48 Helene Gattie 28 F 2F25-29 R 00:26:18 08:29:00
49 Marilu Morgan 27 F 3F25-29 R 00:26:22 08:30:00
50 Al Mast 62 M 1M60-64 R 00:26:37 08:35:00
51 Ryan Reed 10 M R 00:26:47 08:38:00
52 Ella Hoettels 43 F 2F40-44 R 00:26:54 08:40:00
53 Glen Scharf 49 M R 00:26:56 08:41:00
54 Annina Lombardi 33 F 2F30-34 R 00:27:06 08:44:00
55 Jennifer Fox 34 F 3F30-34 R 00:27:19 08:48:00
56 Michelle Boswell 47 F 2F45-49 R 00:27:25 08:50:00
57 Gary Reece 36 M R 00:27:26 08:50:00
58 Katherine Morrow 24 F 1F20-24 R 00:27:39 08:55:00
59 Sam Boswell 45 M R 00:27:49 08:58:00
60 Avery Barrett 27 M R 00:27:51 08:59:00
61 Rowel Lirag 55 M 3M55-59 R 00:27:58 09:01:00
62 Ashlyn Loewecke 24 F 2F20-24 R 00:27:59 09:01:00
63 Lee Anne Hankins 35 F R 00:28:01 09:02:00
64 Robert Morrow 62 M 2M60-64 R 00:28:06 09:03:00
65 John Rouse 42 M 2M40-44 R 00:28:09 09:04:00
66 Steve Cookman 50 M R 00:28:11 09:05:00
67 Barry Reed 52 M R 00:28:15 09:06:00
68 Debbie Mast 54 F 1F50-54 R 00:28:34 09:12:00
69 Mathew Takacs 37 M R 00:28:45 09:16:00
70 Anna Klepser 41 F 3F40-44 R 00:28:57 09:20:00
71 Dan VanCleave 71 M 1M70-74 R 00:28:58 09:20:00
72 Monica Ramon 40 F R 00:28:59 09:20:00
73 Catherine McLane 28 F R 00:28:59 09:20:00
74 Bryan Whitehead 42 M 3M40-44 R 00:29:16 09:26:00
75 Laura Bivins 28 F R 00:29:29 09:30:00
76 Ken Smalewich 56 M Overall Male W 00:29:37 09:33:00
77 Bill Christi 70 M 2M70-74 R 00:29:40 09:34:00
78 Kathleen Goebel 42 F R 00:29:40 09:34:00
79 Christi Rountree 41 F R 00:29:59 09:40:00
80 Wing Rushing 34 F R 00:29:59 09:40:00
81 Shai-lin Ynacay 35 F R 00:30:04 09:41:00
82 Bobby Parker 26 M 2M25-29 R 00:30:08 09:43:00
83 Paul Fisher 38 M R 00:30:19 09:46:00
84 Misty McHenry 37 F R 00:30:27 09:49:00
85 Megan Suggs 23 F 3F20-24 R 00:30:34 09:51:00
86 Erica Pranke 27 F R 00:30:37 09:52:00
87 Jacob Castle 11 M R 00:30:54 09:58:00
88 Kanani Esserman 55 F 2F55-59 R 00:30:57 09:59:00
89 Jamey Whitehead 35 F R 00:31:05 10:01:00
90 Jennifer Pho 41 F R 00:31:05 10:01:00
91 Valeria Rehl 54 F 2F50-54 R 00:31:14 10:04:00
92 Amber Hill 39 F R 00:31:31 10:10:00
93 Sebastina Romeo 53 M R 00:32:04 10:20:00
94 Amber Romeo 37 F R 00:32:05 10:20:00
95 Danielle Toth 34 F R 00:32:16 10:24:00
96 Lily Morrow 10 F R 00:32:32 10:29:00
97 Bill Anderson 73 M 3M70-74 R 00:32:33 10:30:00
98 Nancy Mann 71 F Female Sr G/M R 00:32:46 10:34:00
99 Gary Stanford 57 M R 00:32:51 10:35:00
100 Brian Weightman 49 M R 00:32:54 10:36:00
101 Amy Maddox 47 F 3F45-49 R 00:32:56 10:37:00
102 Michelle Castro 46 F R 00:33:00 10:38:00
103 Reba Harell 54 F 3F50-54 R 00:33:00 10:38:00
104 Becky Drake 43 F R 00:33:14 10:43:00
105 Katie Sharon 34 F R 00:33:20 10:45:00
106 William Nation 56 M R 00:33:25 10:46:00
107 Phi Tran 35 F R 00:33:26 10:47:00
108 Patricia Yelverton 45 F R 00:33:33 10:49:00
109 Zarina Ellis 24 F R 00:33:58 10:57:00
110 Casey Kennington 33 F R 00:34:00 00:10:00
111 Chelsea Williams 24 F R 00:34:14 11:02:00
112 Natalie Lukoit 58 F 3F55-59 R 00:34:19 11:04:00
113 Pat Youles 67 M 3M65-69 R 00:34:39 11:10:00
114 Aaron Walp 34 M 3M30-34 R 00:34:52 11:14:00
115 Tiffany Lunsford 37 F R 00:35:29 11:26:00
116 Heather McKinney 28 F R 00:35:50 11:33:00
117 Cadence Garza 6 F 1F0-9 R 00:35:51 11:33:00
118 Cathy Alley 61 F Overall Female W 00:35:51 11:33:00
119 Emilio Garza 46 M R 00:36:18 11:42:00
120 Linda Modinger 46 F R 00:36:18 11:42:00
121 Edward Modinger 48 M R 00:36:30 11:46:00
122 Bob Matheson 68 M 2 Male W 00:36:32 11:47:00
123 Presley Sullivan 20 F R 00:36:45 11:51:00
124 Charles White 31 M R 00:36:46 11:51:00
125 Zachary Lehman 9 M 2M0-9 R 00:36:52 11:53:00
126 Alyson Garza 39 F R 00:36:58 11:55:00
127 Joan Forman 76 F 1F75-79 R 00:37:00 11:56:00
128 Lyndal Bardin 41 F R 00:37:28 12:05:00
129 Lisa Engleman 44 F 2 Walker W 00:37:29 12:05:00
130 Ally Engleman 15 F 3 Walker W 00:37:29 12:05:00
131 Roger Ogilvie 55 M R 00:37:59 12:15:00
132 Inge Ackerman 71 F 1F70-74 R 00:38:10 12:18:00
133 Alyssa Christopher 24 F R 00:38:30 12:25:00
134 Ashley Harrison 28 F R 00:38:50 12:31:00
135 James Mink 44 M R 00:38:56 12:33:00
136 Kilaya Hollins 11 F R 00:39:10 12:38:00
137 Torsha Freeman 39 F R 00:39:13 12:39:00
138 Josh Faust 36 M R 00:39:14 12:39:00
139 Ana Leaurinda 57 F R 00:39:19 12:40:00
140 Martin Lebouef 54 M R 00:39:41 12:48:00
141 Jonathan Harned 29 M 3M25-29 R 00:39:58 12:53:00
142 Paul Sims 54 M 3 Male W 00:40:01 12:54:00
143 Deborah Gomes 61 F 4 Female W 00:40:34 13:05:00
144 Lawrence Wager 71 M R 00:40:40 13:07:00
145 Keith Phillippi 58 M 4 Male W 00:40:45 13:08:00
146 Sandra Bernier 56 F R 00:41:53 13:30:00
147 Shane Cannon 53 M R 00:42:16 13:38:00
148 Jerry Sullivan 47 M W 00:42:21 13:39:00
149 Roger Scheeres 60 M W 00:42:35 13:44:00
150 Chandra Rich 42 F R 00:42:58 13:51:00
151 Luisa Ogilvie 54 F R 00:43:43 14:06:00
152 Randy McClain 62 M 3M60-64 R 00:44:51 14:28:00
153 Deborah Wilmer-Zills 55 F W 00:45:00 14:30:00
154 Jina Phillippi 59 F W 00:45:02 14:31:00
155 Mary Carson 52 F W 00:45:40 14:43:00
156 Richard Hunt 28 M R 00:45:47 14:46:00
157 Tara NaVeaux 28 F R 00:45:52 14:47:00
158 Gerry Walp 60 M W 00:46:37 15:02:00
159 Hyun Kang 58 F W 00:47:11 15:13:00
160 Sharon Calbert 60 F W 00:47:37 15:21:00
161 Logan Wight 6 M 3M0-9 R 00:47:45 15:24:00
162 Sophia Wight 4 F 2F0-9 R 00:47:47 15:24:00
163 Andrew Wight 37 M R 00:47:51 15:26:00
164 Rosalie Wong 47 F R 00:47:56 15:27:00
165 Marcella Eubanks 55 F W 00:48:03 15:30:00
166 Krista Landen 28 F R 00:48:04 15:30:00
167 Cindy Dunn 55 F W 00:48:15 15:33:00
168 Michael Miles 53 M W 00:48:17 15:34:00
169 Teri Graham 54 F R 00:49:20 15:54:00
170 Nicole Leurinda 19 F 1F15-19 R 00:49:28 15:57:00
171 Brenda Doran 69 F W 00:49:50 16:04:00
172 Deborah Bower 64 F 1F60-64 R 00:50:41 16:20:00
173 Sandi Malloy 60 F W 00:51:16 16:32:00
174 Kim Perez 53 F W 00:51:34 16:38:00
175 Gloria Mead 71 F W 00:51:35 16:38:00
176 Bob O'Donnell 76 M 1M75-79 R 00:51:44 16:41:00
177 Maurice Rubright 66 M W 00:51:58 16:45:00
178 Brad Hotard 13 M W 00:52:13 16:50:00
179 Emma Davis 52 F W 00:52:28 16:55:00
180 Maie Jennings 60 F 2F60-64 R 00:53:07 17:08:00
181 Michael Moorer 69 M W 00:53:08 17:08:00
182 Regina Ryniec 52 F W 00:53:24 17:13:00
183 Judy Cookman 75 F W 00:53:39 17:18:00
184 Jacqueline Blue 47 F W 00:53:39 17:18:00
185 Tameka Quimby 40 F W 00:53:50 17:21:00
186 Charles Cummings 71 M R 00:55:44 17:58:00
187 Nancy Cummings 61 F 3F60-64 R 00:55:45 17:59:00
188 Leslie Sullivan 54 F W 00:56:16 18:09:00
189 Brittney Simonette 34 F W 00:56:27 18:12:00
190 Jordan Pehovic 25 F W 00:56:27 18:12:00
191 Monica Mares 58 F R 00:56:28 18:12:00
192 Tamara Baker 47 F W 00:57:19 18:29:00
193 Jennifer Hume 46 F W 00:57:19 18:29:00
194 Vickie McCavitt 62 F W 00:57:28 18:32:00
195 Sheila McKinnie 57 F W 00:57:29 18:32:00
196 Sarah Steffan 31 F R 00:57:30 18:32:00
197 Joshua Steffan 31 M R 00:57:32 18:33:00
198 Johnna Kauffman 27 F W 01:00:30 19:30:00
199 Sherry Post 55 F W 01:00:31 19:31:00
200 Lisa Perey 57 F W 01:00:32 19:31:00
201 Angela Ward 40 F W 01:05:10 21:01:00
202 Callie Delemarre 8 F W 01:05:12 21:01:00
203 Colleen Delemarre 47 F W 01:05:14 21:02:00
204 Cara Delemarre 10 F W 01:05:23 21:05:00

Contact Information Ron Sanstead ronsanstead@hotmail.com 850-974-9616